Time;durP1;ratioP1;P1;durP2;ratioP2;P2;SDS_P1;SDS_P2;PMS_P1;PMS_P2;Temp;Humidity;BMP_temperature;BMP_pressure;BME280_temperature;BME280_humidity;BME280_pressure;Samples;Min_cycle;Max_cycle;Signal;HPM_P1;HPM_P2
2024/01/07 00:01:56;;;;;;;2.47;2.28;;;0.50;99.90;;;;;;5016303;28;20511;-68
2024/01/07 00:04:22;;;;;;;2.50;2.30;;;0.50;99.90;;;;;;5034188;28;20111;-69
2024/01/07 00:06:47;;;;;;;2.58;2.38;;;0.70;99.90;;;;;;5016033;28;20493;-67
2024/01/07 00:09:13;;;;;;;2.20;2.00;;;0.70;99.90;;;;;;5034103;28;20056;-67
2024/01/07 00:11:40;;;;;;;2.42;2.22;;;0.70;99.90;;;;;;5034146;28;20036;-68
2024/01/07 00:14:06;;;;;;;2.72;2.45;;;0.50;99.90;;;;;;5034028;28;20037;-67
2024/01/07 00:16:31;;;;;;;2.80;2.60;;;0.50;99.90;;;;;;5016210;28;20504;-67
2024/01/07 00:18:57;;;;;;;3.10;2.38;;;0.70;99.90;;;;;;5015885;28;20048;-67
2024/01/07 00:21:24;;;;;;;2.47;2.28;;;0.50;99.90;;;;;;5033588;28;20048;-67
2024/01/07 00:23:49;;;;;;;2.60;2.40;;;0.50;99.90;;;;;;5033847;28;20049;-67
2024/01/07 00:26:15;;;;;;;2.50;2.30;;;0.70;99.90;;;;;;5033743;28;20398;-68
2024/01/07 00:28:41;;;;;;;2.47;2.28;;;0.80;99.90;;;;;;5033830;28;20042;-62
2024/01/07 00:31:08;;;;;;;2.70;2.50;;;0.50;99.90;;;;;;5015621;28;20053;-62
2024/01/07 00:33:35;;;;;;;2.72;2.00;;;0.70;99.90;;;;;;5015584;28;20111;-62
2024/01/07 00:36:02;;;;;;;2.30;2.10;;;0.50;99.90;;;;;;5033634;28;20049;-63
2024/01/07 00:38:27;;;;;;;2.53;2.33;;;0.80;99.90;;;;;;5015619;28;20437;-63
2024/01/07 00:40:53;;;;;;;2.30;2.10;;;0.70;99.90;;;;;;5015512;28;20041;-63
2024/01/07 00:43:19;;;;;;;2.25;2.05;;;0.70;99.90;;;;;;5033461;28;20496;-62
2024/01/07 00:45:44;;;;;;;2.38;2.17;;;0.50;99.90;;;;;;5033147;28;20041;-62
2024/01/07 00:48:10;;;;;;;2.53;2.10;;;0.50;99.90;;;;;;5015420;28;20049;-63
2024/01/07 00:50:36;;;;;;;2.10;1.90;;;0.50;99.90;;;;;;5015453;28;20041;-62
2024/01/07 00:53:01;;;;;;;3.35;2.20;;;0.60;99.90;;;;;;5015578;28;20496;-64
2024/01/07 00:55:27;;;;;;;2.40;2.20;;;0.40;99.90;;;;;;5015589;28;20485;-63
2024/01/07 00:57:53;;;;;;;2.30;2.10;;;0.40;99.90;;;;;;5015184;28;20047;-62
2024/01/07 01:00:19;;;;;;;2.00;1.90;;;0.60;99.90;;;;;;5015258;28;20099;-63
2024/01/07 01:02:45;;;;;;;3.20;2.63;;;0.70;99.90;;;;;;5015274;28;20404;-62
2024/01/07 01:05:11;;;;;;;2.15;2.00;;;1.30;99.90;;;;;;5015167;28;20417;-62
2024/01/07 01:07:37;;;;;;;2.47;2.28;;;0.60;99.90;;;;;;5033007;28;20079;-62
2024/01/07 01:10:03;;;;;;;2.40;2.20;;;0.80;99.90;;;;;;5015011;28;20115;-64
2024/01/07 01:12:28;;;;;;;2.42;2.22;;;0.50;99.90;;;;;;5032659;28;20051;-62
2024/01/07 01:14:54;;;;;;;2.60;2.40;;;0.50;99.90;;;;;;5014941;28;20123;-62
2024/01/07 01:17:20;;;;;;;2.25;2.05;;;0.60;99.90;;;;;;5014960;28;20467;-63
2024/01/07 01:19:45;;;;;;;1.95;1.80;;;0.50;99.90;;;;;;5014875;28;20052;-62
2024/01/07 01:22:11;;;;;;;2.47;2.28;;;0.50;99.90;;;;;;5032515;28;20084;-62
2024/01/07 01:24:37;;;;;;;2.30;2.05;;;0.70;99.90;;;;;;5014656;28;20080;-63
2024/01/07 01:27:03;;;;;;;2.30;2.10;;;0.60;99.90;;;;;;4998273;28;20485;-62
2024/01/07 01:29:28;;;;;;;2.35;2.15;;;0.30;99.90;;;;;;5014629;28;20163;-62
2024/01/07 01:31:54;;;;;;;1.88;1.77;;;0.70;99.90;;;;;;5014727;28;20037;-62
2024/01/07 01:34:19;;;;;;;2.25;2.05;;;0.60;99.90;;;;;;5014677;28;20037;-62
2024/01/07 01:36:45;;;;;;;2.38;2.10;;;0.70;99.90;;;;;;5014570;28;20040;-62
2024/01/07 01:39:11;;;;;;;1.80;1.70;;;0.40;99.90;;;;;;5032797;28;20382;-68
2024/01/07 01:41:36;;;;;;;1.88;1.75;;;0.50;99.90;;;;;;5032503;28;20042;-67
2024/01/07 01:44:02;;;;;;;1.98;1.83;;;0.40;99.90;;;;;;5031908;28;20037;-67
2024/01/07 01:46:29;;;;;;;2.65;2.03;;;0.60;99.90;;;;;;5014361;28;20068;-67
2024/01/07 01:48:55;;;;;;;1.70;1.60;;;0.60;99.90;;;;;;5032423;28;20046;-67
2024/01/07 01:51:22;;;;;;;2.15;1.95;;;0.50;99.90;;;;;;5032045;28;20041;-67
2024/01/07 01:53:49;;;;;;;2.03;1.92;;;0.90;99.90;;;;;;5014326;28;20045;-67
2024/01/07 01:56:20;;;;;;;2.20;1.90;;;0.40;99.90;;;;;;5032137;28;20085;-67
2024/01/07 01:58:47;;;;;;;1.90;1.80;;;0.70;99.90;;;;;;5014653;28;20120;-67
2024/01/07 02:01:13;;;;;;;2.30;2.00;;;0.40;99.90;;;;;;5031923;28;20124;-67
2024/01/07 02:03:39;;;;;;;2.05;1.80;;;0.40;99.90;;;;;;5032197;28;20116;-67
2024/01/07 02:06:04;;;;;;;1.80;1.70;;;0.40;99.90;;;;;;5032136;28;20392;-67
2024/01/07 02:08:31;;;;;;;1.98;1.77;;;0.50;99.90;;;;;;5031752;28;20060;-67
2024/01/07 02:10:57;;;;;;;1.63;1.52;;;0.40;99.90;;;;;;5032214;28;20125;-67
2024/01/07 02:13:22;;;;;;;1.65;1.55;;;0.60;99.90;;;;;;5032132;28;20477;-67
2024/01/07 02:15:48;;;;;;;1.75;1.65;;;0.50;99.90;;;;;;5014131;28;20493;-68
2024/01/07 02:18:14;;;;;;;2.28;2.08;;;0.40;99.90;;;;;;5032046;28;20063;-67
2024/01/07 02:20:39;;;;;;;2.05;1.73;;;0.60;99.90;;;;;;5031817;28;20537;-67
2024/01/07 02:23:05;;;;;;;1.60;1.50;;;0.50;99.90;;;;;;5014042;28;20516;-67
2024/01/07 02:25:37;;;;;;;2.17;1.75;;;0.50;99.90;;;;;;5031604;28;20061;-67
2024/01/07 02:28:04;;;;;;;1.75;1.55;;;0.60;99.90;;;;;;5031952;28;20083;-67
2024/01/07 02:30:29;;;;;;;1.45;1.35;;;0.20;99.90;;;;;;5014332;28;20052;-67
2024/01/07 02:32:55;;;;;;;2.40;1.70;;;0.30;99.90;;;;;;5031966;28;20033;-67
2024/01/07 02:35:21;;;;;;;1.92;1.83;;;0.40;99.90;;;;;;5013974;28;20084;-67
2024/01/07 02:37:46;;;;;;;2.08;1.88;;;0.20;99.90;;;;;;5014043;28;20041;-67
2024/01/07 02:40:12;;;;;;;1.80;1.38;;;0.40;99.90;;;;;;5014165;28;20049;-67
2024/01/07 02:42:37;;;;;;;1.35;1.23;;;0.60;99.90;;;;;;4997884;28;20042;-67
2024/01/07 02:45:04;;;;;;;1.77;1.50;;;0.40;99.90;;;;;;5031833;28;20131;-67
2024/01/07 02:47:29;;;;;;;1.90;1.75;;;0.20;99.90;;;;;;5031772;28;20508;-68
2024/01/07 02:49:55;;;;;;;1.30;1.20;;;0.20;99.90;;;;;;5031716;28;20033;-66
2024/01/07 02:52:20;;;;;;;1.35;1.25;;;0.10;99.90;;;;;;5031468;28;20041;-66
2024/01/07 02:54:46;;;;;;;3.45;1.45;;;0.20;99.90;;;;;;5033028;28;20037;-66
2024/01/07 02:57:12;;;;;;;2.28;1.50;;;0.30;99.90;;;;;;5017525;28;20102;-66
2024/01/07 02:59:37;;;;;;;1.50;1.40;;;0.50;99.90;;;;;;5035515;28;20401;-66
2024/01/07 03:02:03;;;;;;;1.88;1.35;;;0.30;99.90;;;;;;5017425;28;20378;-66
2024/01/07 03:04:28;;;;;;;1.60;1.40;;;0.30;99.90;;;;;;5035432;28;20051;-66
2024/01/07 03:06:54;;;;;;;2.17;1.77;;;0.30;99.90;;;;;;5035044;28;20038;-66
2024/01/07 03:09:20;;;;;;;1.67;1.30;;;0.30;99.90;;;;;;5035278;28;20408;-66
2024/01/07 03:11:45;;;;;;;1.60;1.50;;;0.40;99.90;;;;;;5035248;28;20060;-66
2024/01/07 03:14:11;;;;;;;1.42;1.33;;;0.30;99.90;;;;;;5000879;28;20045;-66
2024/01/07 03:16:37;;;;;;;2.15;1.70;;;0.30;99.90;;;;;;5017657;28;20045;-66
2024/01/07 03:19:04;;;;;;;1.67;1.58;;;0.20;99.90;;;;;;5034888;28;20077;-66
2024/01/07 03:21:30;;;;;;;1.85;1.48;;;0.50;99.90;;;;;;5016949;28;20094;-66
2024/01/07 03:23:55;;;;;;;1.40;1.30;;;0.30;99.90;;;;;;5035054;28;20049;-66
2024/01/07 03:26:21;;;;;;;1.50;1.40;;;0.30;99.90;;;;;;5016851;28;20041;-67
2024/01/07 03:28:47;;;;;;;1.10;1.00;;;0.10;99.90;;;;;;5034919;28;20075;-66
2024/01/07 03:31:18;;;;;;;1.75;1.65;;;0.80;99.90;;;;;;5016872;28;20072;-66
2024/01/07 03:33:44;;;;;;;1.50;1.40;;;0.10;99.90;;;;;;5034635;28;20080;-66
2024/01/07 03:36:11;;;;;;;1.40;1.30;;;0.20;99.90;;;;;;5016759;28;20532;-66
2024/01/07 03:38:37;;;;;;;1.50;1.40;;;0.50;99.90;;;;;;5034786;28;20166;-66
2024/01/07 03:41:03;;;;;;;1.40;1.30;;;0.20;99.90;;;;;;5034678;28;20493;-66
2024/01/07 03:43:29;;;;;;;2.20;1.90;;;0.10;99.90;;;;;;5034438;28;20033;-66
2024/01/07 03:45:55;;;;;;;1.65;1.30;;;0.00;99.90;;;;;;5034260;28;20038;-66
2024/01/07 03:48:20;;;;;;;1.48;1.30;;;0.60;99.90;;;;;;5016467;28;20050;-66
2024/01/07 03:50:46;;;;;;;1.50;1.40;;;0.10;99.90;;;;;;5016566;28;20429;-66
2024/01/07 03:53:13;;;;;;;1.50;1.40;;;0.30;99.90;;;;;;5016486;28;20405;-66
2024/01/07 03:55:38;;;;;;;1.33;1.23;;;0.10;99.90;;;;;;5034219;28;20509;-66
2024/01/07 03:58:08;;;;;;;2.08;1.60;;;0.10;99.90;;;;;;5016608;28;20072;-66
2024/01/07 04:00:34;;;;;;;1.60;1.33;;;0.10;99.90;;;;;;5000292;28;20087;-66
2024/01/07 04:03:01;;;;;;;1.25;1.15;;;0.20;99.90;;;;;;5034044;28;20041;-66
2024/01/07 04:05:26;;;;;;;1.50;1.35;;;0.60;99.90;;;;;;5015603;28;20046;-66
2024/01/07 04:07:52;;;;;;;1.30;1.20;;;0.00;99.90;;;;;;5015974;28;20068;-66
2024/01/07 04:10:18;;;;;;;1.15;1.08;;;0.20;99.90;;;;;;5034111;28;20505;-66
2024/01/07 04:12:44;;;;;;;1.58;1.48;;;0.20;99.90;;;;;;5034051;28;20117;-66
2024/01/07 04:15:12;;;;;;;1.48;1.30;;;0.10;99.90;;;;;;5034020;28;20116;-66
2024/01/07 04:17:37;;;;;;;1.50;1.40;;;0.40;99.90;;;;;;5033793;28;20409;-66
2024/01/07 04:20:04;;;;;;;1.48;1.38;;;0.30;99.90;;;;;;5015868;28;20045;-66
2024/01/07 04:22:29;;;;;;;1.67;1.30;;;0.00;99.90;;;;;;5033944;28;20033;-66
2024/01/07 04:24:55;;;;;;;1.48;1.38;;;0.60;99.90;;;;;;5016117;28;20129;-66
2024/01/07 04:27:21;;;;;;;1.15;1.08;;;0.00;99.90;;;;;;5033450;28;20056;-66
2024/01/07 04:29:46;;;;;;;1.30;1.20;;;0.20;99.90;;;;;;5033714;28;20041;-66
2024/01/07 04:32:12;;;;;;;1.42;1.27;;;0.30;99.90;;;;;;5015654;28;20508;-66
2024/01/07 04:34:38;;;;;;;1.10;1.00;;;0.00;99.90;;;;;;5033483;28;20036;-66
2024/01/07 04:37:03;;;;;;;1.83;1.52;;;0.00;99.90;;;;;;5033685;28;20450;-66
2024/01/07 04:39:29;;;;;;;1.25;1.15;;;0.00;99.90;;;;;;5033549;28;20116;-66
2024/01/07 04:41:54;;;;;;;1.20;1.10;;;0.40;99.90;;;;;;5015566;28;20042;-66
2024/01/07 04:44:20;;;;;;;1.17;1.08;;;0.00;99.90;;;;;;5033539;28;20120;-66
2024/01/07 04:46:48;;;;;;;1.08;0.98;;;0.20;99.90;;;;;;5033427;28;20049;-66
2024/01/07 04:49:14;;;;;;;1.70;1.40;;;0.20;99.90;;;;;;5033393;28;20040;-66
2024/01/07 04:51:39;;;;;;;1.35;1.25;;;0.50;99.90;;;;;;5015545;28;20041;-66
2024/01/07 04:54:05;;;;;;;1.38;1.27;;;0.10;99.90;;;;;;5015294;28;20040;-66
2024/01/07 04:56:32;;;;;;;1.08;0.98;;;0.40;99.90;;;;;;5015231;28;20448;-66
2024/01/07 04:58:57;;;;;;;1.25;1.10;;;0.00;99.90;;;;;;5015522;28;20057;-66
2024/01/07 05:01:23;;;;;;;0.95;0.95;;;0.60;99.90;;;;;;4998807;28;20053;-66
2024/01/07 05:03:49;;;;;;;1.20;1.10;;;0.10;99.90;;;;;;5033140;28;20492;-66
2024/01/07 05:06:14;;;;;;;0.90;0.90;;;0.40;99.90;;;;;;5032938;28;20037;-66
2024/01/07 05:08:41;;;;;;;1.25;0.95;;;0.30;99.90;;;;;;5032695;28;20060;-66
2024/01/07 05:11:07;;;;;;;1.00;1.00;;;0.20;99.90;;;;;;5032972;28;20049;-70
2024/01/07 05:13:33;;;;;;;1.05;0.90;;;0.30;99.90;;;;;;5014913;28;20051;-71
2024/01/07 05:15:59;;;;;;;1.20;1.10;;;1.60;99.90;;;;;;5015245;28;20114;-71
2024/01/07 05:18:25;;;;;;;2.08;1.08;;;0.10;99.90;;;;;;5014711;28;20116;-70
2024/01/07 05:20:51;;;;;;;0.88;0.88;;;0.10;99.90;;;;;;5032457;28;20044;-70
2024/01/07 05:23:17;;;;;;;2.13;1.00;;;0.30;99.90;;;;;;5015397;28;20056;-71
2024/01/07 05:25:44;;;;;;;0.82;0.82;;;0.40;99.90;;;;;;5032383;28;20049;-71
2024/01/07 05:28:10;;;;;;;0.90;0.90;;;0.00;99.90;;;;;;5014687;28;20124;-70
2024/01/07 05:30:36;;;;;;;1.15;0.90;;;0.50;99.90;;;;;;5014692;28;20116;-71
2024/01/07 05:33:02;;;;;;;1.60;0.98;;;0.10;99.90;;;;;;4998559;28;20141;-69
2024/01/07 05:35:27;;;;;;;1.30;1.00;;;-0.10;99.90;;;;;;5014913;28;20049;-69
2024/01/07 05:37:53;;;;;;;1.00;1.00;;;0.60;99.90;;;;;;5014593;28;20041;-72
2024/01/07 05:40:19;;;;;;;0.82;0.80;;;0.30;99.90;;;;;;5014853;28;20045;-71
2024/01/07 05:42:44;;;;;;;0.85;0.85;;;0.20;99.90;;;;;;5014795;28;20034;-70
2024/01/07 05:45:10;;;;;;;1.05;0.95;;;0.20;99.90;;;;;;5014549;28;20400;-70
2024/01/07 05:47:36;;;;;;;0.80;0.80;;;-0.10;99.90;;;;;;5014355;28;20628;-71
2024/01/07 05:50:02;;;;;;;0.80;0.80;;;0.10;99.90;;;;;;5032131;28;20061;-70
2024/01/07 05:52:27;;;;;;;1.08;1.05;;;0.10;99.90;;;;;;5032070;28;20120;-70
2024/01/07 05:54:53;;;;;;;0.82;0.82;;;0.00;99.90;;;;;;5014354;28;20045;-70
2024/01/07 05:57:19;;;;;;;0.80;0.80;;;0.10;99.90;;;;;;5014334;28;20448;-70
2024/01/07 05:59:45;;;;;;;1.23;0.90;;;0.10;99.90;;;;;;5014257;28;20405;-72
2024/01/07 06:02:12;;;;;;;1.13;0.70;;;-0.10;99.90;;;;;;5014307;28;20485;-69
2024/01/07 06:04:38;;;;;;;0.82;0.82;;;0.20;99.90;;;;;;4997937;28;20078;-70
2024/01/07 06:07:04;;;;;;;1.02;1.00;;;0.10;99.90;;;;;;4997563;28;20100;-70
2024/01/07 06:09:30;;;;;;;0.80;0.80;;;0.10;99.90;;;;;;5014166;28;20037;-71
2024/01/07 06:11:56;;;;;;;0.77;0.77;;;0.10;99.90;;;;;;5014399;28;20559;-71
2024/01/07 06:14:25;;;;;;;0.82;0.82;;;0.20;99.90;;;;;;5014128;28;20052;-70
2024/01/07 06:16:50;;;;;;;0.80;0.80;;;-0.10;99.90;;;;;;5014181;28;20624;-71
2024/01/07 06:19:19;;;;;;;0.82;0.80;;;0.00;99.90;;;;;;5014181;28;20120;-71
2024/01/07 06:21:45;;;;;;;1.00;0.82;;;-0.20;99.90;;;;;;5014258;28;20041;-66
2024/01/07 06:24:11;;;;;;;0.70;0.70;;;-0.30;99.90;;;;;;5031789;28;20052;-67
2024/01/07 06:26:37;;;;;;;0.63;0.63;;;-0.10;99.90;;;;;;5031692;28;20235;-67
2024/01/07 06:29:03;;;;;;;0.73;0.73;;;0.20;99.90;;;;;;5015760;28;20092;-65
2024/01/07 06:31:28;;;;;;;0.80;0.80;;;-0.10;99.90;;;;;;5036096;28;20033;-66
2024/01/07 06:33:57;;;;;;;0.80;0.80;;;-0.10;99.90;;;;;;5035765;28;20498;-65
2024/01/07 06:36:23;;;;;;;0.73;0.70;;;-0.10;99.90;;;;;;5035938;28;20499;-65
2024/01/07 06:38:49;;;;;;;0.85;0.70;;;-0.10;99.90;;;;;;5035804;28;20041;-65
2024/01/07 06:41:15;;;;;;;0.82;0.82;;;0.00;99.90;;;;;;5035471;28;20485;-65
2024/01/07 06:43:41;;;;;;;1.13;1.02;;;-0.10;99.90;;;;;;5035751;28;20048;-65
2024/01/07 06:46:06;;;;;;;0.70;0.70;;;0.10;99.90;;;;;;5017721;28;20156;-65
2024/01/07 06:48:32;;;;;;;0.93;0.90;;;0.60;99.90;;;;;;5035365;28;20037;-65
2024/01/07 06:50:58;;;;;;;0.80;0.80;;;-0.10;99.90;;;;;;5017752;28;20097;-65
2024/01/07 06:53:24;;;;;;;1.00;0.90;;;-0.10;99.90;;;;;;5035887;28;20037;-65
2024/01/07 06:55:49;;;;;;;0.70;0.70;;;0.00;99.90;;;;;;5035622;28;20041;-65
2024/01/07 06:58:15;;;;;;;0.95;0.95;;;-0.10;99.90;;;;;;5035530;28;20041;-65
2024/01/07 07:00:41;;;;;;;1.10;0.93;;;-0.10;99.90;;;;;;5035466;28;20125;-65
2024/01/07 07:03:06;;;;;;;0.77;0.77;;;0.00;99.90;;;;;;5017389;28;20050;-65
2024/01/07 07:05:32;;;;;;;0.95;0.82;;;-0.20;99.90;;;;;;5017473;28;20099;-65
2024/01/07 18:16:07;;;;;;;1.52;1.10;;;-1.20;99.90;;;;;;5032384;28;20512;-59
2024/01/07 18:18:39;;;;;;;1.33;1.23;;;-1.10;99.90;;;;;;5014981;28;20413;-59
2024/01/07 18:21:05;;;;;;;1.60;1.27;;;-1.10;99.90;;;;;;5032746;28;20037;-59
2024/01/07 18:23:31;;;;;;;1.10;1.02;;;-1.10;99.90;;;;;;5015102;28;20049;-59
2024/01/07 18:25:56;;;;;;;0.90;0.90;;;-1.20;99.90;;;;;;5035919;28;20045;-59
2024/01/07 18:28:22;;;;;;;1.30;1.20;;;-1.20;99.90;;;;;;5036978;28;20423;-58
2024/01/07 18:30:48;;;;;;;1.27;1.17;;;-1.20;99.90;;;;;;5018866;28;20045;-59
2024/01/07 18:33:13;;;;;;;1.20;1.10;;;-0.50;99.90;;;;;;5018970;28;20037;-59
2024/01/07 18:35:41;;;;;;;1.15;1.00;;;-0.90;99.90;;;;;;5036843;28;20041;-59
2024/01/07 18:38:07;;;;;;;0.90;0.90;;;-1.20;99.90;;;;;;5018838;28;20393;-59
2024/01/07 18:40:33;;;;;;;0.90;0.90;;;-0.50;99.90;;;;;;5036477;28;20037;-59
2024/01/07 18:43:01;;;;;;;1.35;1.25;;;-1.20;99.90;;;;;;5036752;28;20506;-61
2024/01/07 18:45:28;;;;;;;0.95;0.95;;;-0.70;99.90;;;;;;5018818;28;20112;-59
2024/01/07 18:47:54;;;;;;;0.93;0.93;;;-1.20;99.90;;;;;;5036481;28;20179;-59
2024/01/07 18:50:19;;;;;;;1.10;1.00;;;-1.10;99.90;;;;;;5018647;28;20529;-59
2024/01/07 18:52:46;;;;;;;0.80;0.80;;;-1.20;99.90;;;;;;5018332;28;20042;-59
2024/01/07 18:55:15;;;;;;;1.30;1.10;;;-1.20;99.90;;;;;;5018087;28;20069;-59
2024/01/07 18:57:43;;;;;;;0.85;0.85;;;-1.20;99.90;;;;;;5036397;28;20041;-58
2024/01/07 19:00:10;;;;;;;0.90;0.90;;;-1.20;99.90;;;;;;5036424;28;20037;-58
2024/01/07 19:02:35;;;;;;;0.85;0.85;;;-1.20;99.90;;;;;;5036281;28;20045;-58
2024/01/07 19:05:02;;;;;;;0.70;0.70;;;-1.20;99.90;;;;;;5036096;28;20034;-58
2024/01/07 19:07:27;;;;;;;0.90;0.90;;;-1.20;99.90;;;;;;5035738;28;20088;-58
2024/01/07 19:09:53;;;;;;;1.30;1.13;;;-1.30;99.90;;;;;;5018381;28;20076;-58
2024/01/07 19:12:18;;;;;;;0.82;0.82;;;-1.30;99.90;;;;;;5036335;28;20120;-67
2024/01/07 19:14:45;;;;;;;1.95;1.35;;;-1.30;99.90;;;;;;5036174;28;20045;-67
2024/01/07 19:17:24;;;;;;;1.02;1.02;;;-0.60;99.90;;;;;;5017316;28;20092;-67
2024/01/07 19:19:56;;;;;;;0.93;0.90;;;-1.30;99.90;;;;;;5035910;28;20041;-67
2024/01/07 19:22:22;;;;;;;0.90;0.90;;;-1.40;99.90;;;;;;5035729;28;20128;-66
2024/01/07 19:24:49;;;;;;;1.48;1.15;;;-1.30;99.90;;;;;;5018033;28;20037;-67
2024/01/07 19:27:15;;;;;;;0.90;0.90;;;-1.30;99.90;;;;;;5017642;28;20045;-67
2024/01/07 19:29:41;;;;;;;1.60;1.15;;;-1.30;99.90;;;;;;5035872;28;20037;-69
2024/01/07 19:32:07;;;;;;;1.20;0.90;;;-1.20;99.90;;;;;;5017931;28;20041;-67
2024/01/07 19:34:34;;;;;;;0.60;0.60;;;-1.30;99.90;;;;;;5035854;28;20041;-67
2024/01/07 19:37:01;;;;;;;0.82;0.82;;;-1.20;99.90;;;;;;5034701;28;20049;-67
2024/01/07 19:39:26;;;;;;;1.17;0.98;;;-1.20;99.90;;;;;;5035682;28;20059;-67
2024/01/07 19:41:53;;;;;;;1.23;1.13;;;-1.20;99.90;;;;;;5035696;28;20042;-67
2024/01/07 19:44:18;;;;;;;2.00;1.50;;;-1.20;99.90;;;;;;5035658;28;20481;-68
2024/01/07 19:46:44;;;;;;;0.80;0.80;;;-1.20;99.90;;;;;;5017707;28;20044;-67
2024/01/07 19:49:11;;;;;;;0.88;0.88;;;-1.30;99.90;;;;;;5035189;28;20049;-67
2024/01/07 19:51:37;;;;;;;1.70;0.80;;;-1.20;99.90;;;;;;5017424;28;20489;-67
2024/01/07 19:54:03;;;;;;;0.90;0.90;;;-1.30;99.90;;;;;;5035450;28;20105;-67
2024/01/07 19:56:28;;;;;;;0.82;0.82;;;-1.20;99.90;;;;;;5017640;28;20511;-67
2024/01/07 19:58:55;;;;;;;0.80;0.80;;;-1.20;99.90;;;;;;5035395;28;20034;-66
2024/01/07 20:01:21;;;;;;;1.00;0.90;;;-1.20;99.90;;;;;;5035028;28;20045;-67
2024/01/07 20:03:47;;;;;;;0.85;0.85;;;-1.20;99.90;;;;;;5017332;28;20405;-67
2024/01/07 20:06:13;;;;;;;1.00;0.90;;;-1.20;99.90;;;;;;5017123;28;20124;-68
2024/01/07 20:08:40;;;;;;;1.05;1.02;;;-1.20;99.90;;;;;;5017145;28;20041;-67
2024/01/07 20:11:06;;;;;;;1.00;1.00;;;-1.20;99.90;;;;;;5017419;28;20444;-67
2024/01/07 20:13:31;;;;;;;0.88;0.88;;;-1.20;99.90;;;;;;5017410;28;20041;-67
2024/01/07 20:16:04;;;;;;;1.10;1.00;;;-1.20;99.90;;;;;;5016496;28;20116;-67
2024/01/07 20:18:30;;;;;;;1.40;0.90;;;-1.20;99.90;;;;;;5035050;28;20042;-66
2024/01/07 20:20:56;;;;;;;0.90;0.90;;;-1.10;99.90;;;;;;5016925;28;20397;-68
2024/01/07 20:23:21;;;;;;;1.17;1.08;;;-1.10;99.90;;;;;;5017004;28;20042;-65
2024/01/07 20:25:47;;;;;;;1.10;1.00;;;-1.10;99.90;;;;;;5034550;28;20091;-65
2024/01/07 20:28:14;;;;;;;0.82;0.82;;;-1.10;99.90;;;;;;5034767;28;20038;-64
2024/01/07 20:30:40;;;;;;;1.00;1.00;;;-1.10;99.90;;;;;;5034412;28;20048;-65
2024/01/07 20:33:09;;;;;;;3.30;1.00;;;-1.10;99.90;;;;;;5034647;28;20116;-65
2024/01/07 20:35:36;;;;;;;1.00;1.00;;;-0.80;99.90;;;;;;5016967;28;20500;-64
2024/01/07 20:38:02;;;;;;;1.27;1.17;;;-1.10;99.90;;;;;;5034602;28;20037;-65
2024/01/07 20:40:28;;;;;;;0.90;0.90;;;-1.10;99.90;;;;;;5034277;28;20563;-65
2024/01/07 20:42:54;;;;;;;0.77;0.77;;;-1.10;99.90;;;;;;5034424;28;20037;-65
2024/01/07 20:45:20;;;;;;;1.20;1.10;;;-1.10;99.90;;;;;;5016249;28;20508;-64
2024/01/07 20:47:46;;;;;;;0.80;0.80;;;-1.10;99.90;;;;;;5033758;28;20045;-65
2024/01/07 20:50:12;;;;;;;0.80;0.80;;;-1.10;99.90;;;;;;5016291;28;20046;-64
2024/01/07 20:52:37;;;;;;;0.90;0.90;;;-1.10;99.90;;;;;;5034302;28;20496;-65
2024/01/07 20:55:03;;;;;;;2.05;0.90;;;-1.10;99.90;;;;;;5033939;28;20052;-65
2024/01/07 20:57:29;;;;;;;1.27;1.00;;;-1.10;99.90;;;;;;5034605;28;20041;-65
2024/01/07 20:59:55;;;;;;;0.82;0.82;;;-1.10;99.90;;;;;;5034149;28;20124;-65
2024/01/07 21:02:21;;;;;;;1.15;1.05;;;-1.10;99.90;;;;;;5016136;28;20080;-65
2024/01/07 21:04:46;;;;;;;1.05;1.00;;;-1.20;99.90;;;;;;5033774;28;20046;-65
2024/01/07 21:07:12;;;;;;;1.02;0.93;;;-1.20;99.90;;;;;;5015964;28;20077;-64
2024/01/07 21:09:38;;;;;;;1.13;1.02;;;-1.20;99.90;;;;;;5033966;28;20037;-65
2024/01/07 21:12:04;;;;;;;0.90;0.90;;;-1.10;99.90;;;;;;5016068;28;20038;-65
2024/01/07 21:14:30;;;;;;;0.95;0.88;;;-1.10;99.90;;;;;;5033957;28;20428;-65
2024/01/07 21:17:02;;;;;;;1.13;1.10;;;-1.10;99.90;;;;;;5015613;28;20067;-65
2024/01/07 21:19:28;;;;;;;1.20;1.10;;;-1.20;99.90;;;;;;5033805;28;20052;-64
2024/01/07 21:21:54;;;;;;;0.85;0.85;;;-1.20;99.90;;;;;;5033771;28;20048;-64
2024/01/07 21:24:20;;;;;;;0.80;0.80;;;-1.20;99.90;;;;;;5033796;28;20260;-65
2024/01/07 21:26:45;;;;;;;1.23;1.00;;;-1.20;99.90;;;;;;5015745;28;20046;-64
2024/01/07 21:29:11;;;;;;;0.90;0.90;;;-1.10;99.90;;;;;;5033691;28;20049;-65
2024/01/07 21:31:37;;;;;;;1.00;0.90;;;-1.20;99.90;;;;;;5033331;28;20037;-65
2024/01/07 21:34:02;;;;;;;1.05;1.05;;;-1.20;99.90;;;;;;5033519;28;20034;-58
2024/01/07 21:36:28;;;;;;;0.88;0.88;;;-1.20;99.90;;;;;;5033207;28;20172;-59
2024/01/07 21:38:53;;;;;;;1.10;1.00;;;-1.20;99.90;;;;;;5015526;28;20183;-58
2024/01/07 21:41:19;;;;;;;0.93;0.93;;;-1.20;99.90;;;;;;5033442;28;20401;-58
2024/01/07 21:43:45;;;;;;;0.90;0.90;;;-1.20;99.90;;;;;;5033121;28;20045;-63
2024/01/07 21:46:11;;;;;;;0.90;0.90;;;-1.20;99.90;;;;;;5033273;28;20057;-63
2024/01/07 21:48:40;;;;;;;0.93;0.93;;;-1.20;99.90;;;;;;5033432;28;20151;-63
2024/01/07 21:51:07;;;;;;;1.00;1.00;;;-1.20;99.90;;;;;;5032977;28;20049;-63
2024/01/07 21:53:32;;;;;;;1.00;0.90;;;-1.20;99.90;;;;;;5015202;28;20111;-63
2024/01/07 21:55:58;;;;;;;1.10;1.00;;;-1.20;99.90;;;;;;5033022;28;20498;-63
2024/01/07 21:58:24;;;;;;;0.90;0.90;;;-1.00;99.90;;;;;;5015366;28;20087;-63
2024/01/07 22:00:50;;;;;;;1.17;1.08;;;-1.20;99.90;;;;;;5032528;28;20374;-63
2024/01/07 22:03:16;;;;;;;1.10;1.00;;;-1.10;99.90;;;;;;5015213;28;20044;-63
2024/01/07 22:05:41;;;;;;;0.93;0.93;;;-1.00;99.90;;;;;;5032823;28;20037;-64
2024/01/07 22:08:07;;;;;;;1.63;1.15;;;-1.20;99.90;;;;;;5032859;28;20045;-64
2024/01/07 22:10:40;;;;;;;0.98;0.98;;;-1.20;99.90;;;;;;5032553;28;20050;-64
2024/01/07 22:13:25;;;;;;;1.52;1.30;;;-1.20;99.90;;;;;;5032878;28;20045;-64
2024/01/07 22:15:51;;;;;;;0.80;0.80;;;-1.30;99.90;;;;;;5032188;28;20049;-63
2024/01/07 22:18:30;;;;;;;1.00;1.00;;;-1.20;99.90;;;;;;5032897;28;20049;-64
2024/01/07 22:20:56;;;;;;;0.82;0.82;;;-1.20;99.90;;;;;;5032881;28;20041;-64
2024/01/07 22:23:22;;;;;;;1.17;1.08;;;-1.30;99.90;;;;;;5033014;28;20385;-64
2024/01/07 22:25:47;;;;;;;1.13;1.02;;;-1.20;99.90;;;;;;5032879;28;20037;-64
2024/01/07 22:28:13;;;;;;;1.25;1.17;;;-1.30;99.90;;;;;;5032736;28;20096;-64
2024/01/07 22:30:38;;;;;;;2.92;1.00;;;-1.30;99.90;;;;;;5032964;28;20041;-67
2024/01/07 22:33:05;;;;;;;2.33;1.10;;;-1.30;99.90;;;;;;5032639;28;20041;-63
2024/01/07 22:35:31;;;;;;;0.80;0.80;;;-1.30;99.90;;;;;;5032509;28;20128;-63
2024/01/07 22:37:56;;;;;;;0.95;0.95;;;-1.30;99.90;;;;;;5032813;28;20125;-64
2024/01/07 22:40:22;;;;;;;0.80;0.80;;;-1.40;99.90;;;;;;5014739;28;20067;-64
2024/01/07 22:42:48;;;;;;;1.20;1.10;;;-1.40;99.90;;;;;;5032909;28;20034;-58
2024/01/07 22:45:13;;;;;;;0.90;0.90;;;-1.40;99.90;;;;;;5032746;28;20527;-59
2024/01/07 22:47:39;;;;;;;1.00;1.00;;;-1.50;99.90;;;;;;5032406;28;20485;-59
2024/01/07 22:50:05;;;;;;;0.90;0.90;;;-1.50;99.90;;;;;;5014760;28;20041;-59
2024/01/07 22:52:31;;;;;;;1.30;1.20;;;-1.50;99.90;;;;;;5032443;28;20045;-67
2024/01/07 22:54:56;;;;;;;1.00;1.00;;;-1.60;99.90;;;;;;5014663;28;20040;-68
2024/01/07 22:57:22;;;;;;;1.10;1.00;;;-1.60;99.90;;;;;;5015027;28;20553;-67
2024/01/07 22:59:48;;;;;;;2.03;1.40;;;-1.60;99.90;;;;;;5032313;28;20128;-68
2024/01/07 23:02:14;;;;;;;1.63;1.30;;;-1.60;99.90;;;;;;5032622;28;20118;-67
2024/01/07 23:04:40;;;;;;;1.02;1.00;;;-1.60;99.90;;;;;;5014501;28;20486;-67
2024/01/07 23:07:06;;;;;;;0.90;0.90;;;-1.60;99.90;;;;;;5032477;28;20073;-66
2024/01/07 23:09:31;;;;;;;1.38;1.13;;;-1.60;99.90;;;;;;5014532;28;20596;-67
2024/01/07 23:11:57;;;;;;;1.40;1.30;;;-1.50;99.90;;;;;;5017395;28;20460;-66
2024/01/07 23:14:22;;;;;;;1.38;1.10;;;-1.50;99.90;;;;;;5001959;28;20116;-67
2024/01/07 23:16:54;;;;;;;1.10;1.00;;;-1.50;99.90;;;;;;5017982;28;20064;-67
2024/01/07 23:19:34;;;;;;;1.65;1.00;;;-1.50;99.90;;;;;;5036185;28;20405;-67
2024/01/07 23:21:59;;;;;;;1.30;1.20;;;-1.40;99.90;;;;;;5035703;28;20045;-67
2024/01/07 23:24:25;;;;;;;1.20;1.10;;;-1.40;99.90;;;;;;5018040;28;20046;-67
2024/01/07 23:26:51;;;;;;;1.67;1.00;;;-1.40;99.90;;;;;;5035631;28;20045;-66
2024/01/07 23:29:16;;;;;;;1.13;1.02;;;-1.40;99.90;;;;;;5035705;28;20042;-68
2024/01/07 23:31:45;;;;;;;1.35;1.00;;;-1.30;99.90;;;;;;5018192;28;20428;-67
2024/01/07 23:34:11;;;;;;;1.30;1.20;;;-1.30;99.90;;;;;;5001538;28;20049;-67
2024/01/07 23:36:36;;;;;;;1.02;1.00;;;-0.60;99.90;;;;;;5035640;28;20041;-66
2024/01/07 23:39:03;;;;;;;1.42;1.33;;;-1.30;99.90;;;;;;5035588;28;20124;-67
2024/01/07 23:41:29;;;;;;;1.38;1.20;;;-1.30;99.90;;;;;;5017783;28;20068;-67
2024/01/07 23:43:55;;;;;;;2.85;1.48;;;-1.40;99.90;;;;;;5018010;28;20049;-68
2024/01/07 23:46:21;;;;;;;1.20;1.10;;;-1.40;99.90;;;;;;5035537;28;20393;-67
2024/01/07 23:48:47;;;;;;;1.13;1.02;;;-1.40;99.90;;;;;;5035626;28;20044;-67
2024/01/07 23:51:13;;;;;;;0.77;0.77;;;-1.40;99.90;;;;;;5017561;28;20037;-67
2024/01/07 23:53:39;;;;;;;1.38;1.27;;;-1.50;99.90;;;;;;5035623;28;20041;-64
2024/01/07 23:56:05;;;;;;;1.20;1.10;;;-1.60;99.90;;;;;;5035427;28;20121;-64